METAR Data
IDs: Format: Raw Decoded Include TAF

Data at: 1423 UTC 25 Nov 2020

PTTP 251252Z 08006KT 15SM BKN018TCU OVC130 28/26 A2978 RMK SHRAE30 TCU ALQDS SLP083 T02780255 402940264